createdAt,value
2022-11-19T00:01:54.382Z,9.92
2022-11-19T00:07:00.722Z,9.22
2022-11-19T00:12:07.069Z,13.53
2022-11-19T00:17:13.298Z,9.23
2022-11-19T00:22:19.555Z,8.87
2022-11-19T00:27:27.001Z,8.85
2022-11-19T00:32:33.203Z,13.84
2022-11-19T00:37:40.508Z,8.47
2022-11-19T00:42:48.536Z,9.23
2022-11-19T00:47:54.891Z,9.00
2022-11-19T00:53:02.148Z,8.96
2022-11-19T00:58:08.567Z,8.33
2022-11-19T01:03:16.011Z,8.54
2022-11-19T01:08:22.351Z,8.33
2022-11-19T01:13:28.586Z,7.56
2022-11-19T01:18:34.885Z,9.21
2022-11-19T01:23:41.128Z,6.81
2022-11-19T01:28:47.600Z,6.38
2022-11-19T01:33:53.823Z,6.79
2022-11-19T01:39:00.260Z,6.19
2022-11-19T01:44:07.686Z,5.84
2022-11-19T01:49:14.014Z,6.16
2022-11-19T01:54:23.874Z,6.16
2022-11-19T01:59:30.295Z,6.48
2022-11-19T02:04:37.838Z,6.26
2022-11-19T02:09:44.232Z,6.34
2022-11-19T02:14:54.886Z,6.47
2022-11-19T02:19:57.515Z,5.34
2022-11-19T02:25:03.811Z,6.09
2022-11-19T02:30:10.083Z,8.73
2022-11-19T02:35:16.655Z,6.00
2022-11-19T02:40:22.897Z,4.30
2022-11-19T02:45:29.060Z,3.57
2022-11-19T02:50:35.301Z,5.75
2022-11-19T02:55:41.512Z,3.87
2022-11-19T03:00:47.821Z,3.61
2022-11-19T03:05:54.034Z,2.19
2022-11-19T03:11:00.320Z,2.10
2022-11-19T03:16:06.491Z,1.90
2022-11-19T03:21:12.688Z,1.55
2022-11-19T03:26:20.041Z,0.70
2022-11-19T03:31:26.327Z,0.15
2022-11-19T03:36:32.543Z,0.18
2022-11-19T03:41:38.783Z,0.12
2022-11-19T03:46:45.768Z,0.35
2022-11-19T03:51:52.077Z,0.23
2022-11-19T03:56:58.416Z,0.21
2022-11-19T04:02:04.738Z,0.41
2022-11-19T04:07:11.935Z,0.29
2022-11-19T04:12:18.134Z,0.66
2022-11-19T04:17:24.347Z,0.61
2022-11-19T04:22:31.573Z,0.55
2022-11-19T04:27:37.835Z,0.64
2022-11-19T04:32:44.199Z,0.72
2022-11-19T04:37:51.626Z,1.42
2022-11-19T04:42:57.912Z,1.12
2022-11-19T04:48:04.094Z,1.42
2022-11-19T04:53:10.371Z,1.74
2022-11-19T04:58:17.032Z,2.00
2022-11-19T05:03:23.541Z,2.26
2022-11-19T05:08:32.821Z,3.16
2022-11-19T05:13:39.914Z,2.56
2022-11-19T05:18:46.088Z,2.45
2022-11-19T05:23:52.392Z,4.40
2022-11-19T05:28:58.596Z,2.82
2022-11-19T05:34:04.971Z,3.14
2022-11-19T05:39:11.185Z,3.28
2022-11-19T05:44:17.507Z,3.66
2022-11-19T05:49:23.837Z,5.48
2022-11-19T05:54:30.172Z,3.51
2022-11-19T05:59:40.841Z,4.21
2022-11-19T06:04:43.494Z,4.81
2022-11-19T06:09:48.680Z,8.34
2022-11-19T06:14:54.945Z,6.31
2022-11-19T06:20:03.034Z,6.20
2022-11-19T06:25:09.268Z,6.62
2022-11-19T06:30:15.440Z,6.88
2022-11-19T06:35:21.728Z,6.34
2022-11-19T06:40:27.988Z,7.39
2022-11-19T06:45:34.314Z,11.00
2022-11-19T06:50:40.580Z,7.88
2022-11-19T06:55:46.955Z,8.28
2022-11-19T07:00:53.231Z,8.36
2022-11-19T07:06:01.462Z,8.77
2022-11-19T07:11:07.784Z,9.18
2022-11-19T07:16:14.751Z,9.34
2022-11-19T07:21:21.010Z,9.92
2022-11-19T07:26:27.389Z,9.52
2022-11-19T07:31:33.612Z,9.79
2022-11-19T07:36:39.935Z,11.38
2022-11-19T07:41:46.106Z,10.30
2022-11-19T07:46:52.395Z,14.97
2022-11-19T07:51:58.584Z,15.30
2022-11-19T07:57:05.466Z,15.21
2022-11-19T08:02:11.753Z,15.22
2022-11-19T08:07:19.357Z,10.08
2022-11-19T08:12:25.473Z,10.72
2022-11-19T08:17:32.958Z,10.44
2022-11-19T08:22:39.212Z,9.40
2022-11-19T08:27:45.513Z,9.58
2022-11-19T08:37:51.820Z,15.22
2022-11-19T08:43:07.229Z,9.90
2022-11-19T08:48:03.512Z,13.92
2022-11-19T08:53:10.911Z,13.98
2022-11-19T08:58:17.181Z,13.19
2022-11-19T09:03:24.570Z,8.92
2022-11-19T09:08:30.785Z,8.59
2022-11-19T09:13:38.022Z,11.90
2022-11-19T09:18:44.251Z,7.45
2022-11-19T09:23:51.717Z,8.38
2022-11-19T09:28:57.884Z,7.85
2022-11-19T09:34:04.124Z,11.66
2022-11-19T09:44:11.228Z,6.85
2022-11-19T09:49:17.731Z,10.00
2022-11-19T09:54:23.974Z,6.92
2022-11-19T09:59:30.361Z,9.86
2022-11-19T10:04:36.617Z,9.65
2022-11-19T10:09:47.500Z,6.91
2022-11-19T10:14:43.697Z,10.25
2022-11-19T10:19:50.041Z,5.98
2022-11-19T10:24:57.531Z,6.51
2022-11-19T10:30:04.551Z,10.37
2022-11-19T10:35:10.929Z,6.88
2022-11-19T10:40:17.216Z,6.69
2022-11-19T10:50:24.722Z,5.20
2022-11-19T10:55:31.149Z,5.09
2022-11-19T11:00:37.472Z,5.53
2022-11-19T11:05:45.268Z,4.75
2022-11-19T11:10:50.508Z,5.24
2022-11-19T11:15:56.898Z,5.43
2022-11-19T11:21:04.366Z,4.95
2022-11-19T11:26:10.785Z,7.44
2022-11-19T11:31:18.418Z,5.02
2022-11-19T11:36:24.725Z,4.98
2022-11-19T11:42:05.388Z,5.18
2022-11-19T11:46:40.148Z,4.93
2022-11-19T11:56:56.203Z,4.98
2022-11-19T12:02:02.547Z,4.90
2022-11-19T12:07:10.187Z,4.70
2022-11-19T12:12:19.719Z,5.35
2022-11-19T12:17:27.170Z,4.71
2022-11-19T12:22:40.060Z,7.60
2022-11-19T12:27:47.537Z,4.80
2022-11-19T12:32:44.744Z,4.70
2022-11-19T12:38:00.488Z,4.34
2022-11-19T12:42:59.029Z,7.96
2022-11-19T12:48:07.351Z,4.73
2022-11-19T12:58:22.679Z,4.91
2022-11-19T13:03:18.085Z,4.75
2022-11-19T13:08:45.884Z,5.10
2022-11-19T13:13:39.734Z,5.06
2022-11-19T13:18:38.004Z,8.90
2022-11-19T13:23:45.855Z,5.27
2022-11-19T13:28:53.628Z,5.16
2022-11-19T13:34:02.450Z,5.27
2022-11-19T13:39:07.670Z,5.39
2022-11-19T13:44:19.454Z,4.99
2022-11-19T13:49:18.995Z,7.22
2022-11-19T13:54:27.001Z,8.07
2022-11-19T13:59:34.220Z,5.60
2022-11-19T14:04:45.178Z,4.87
2022-11-19T14:09:44.597Z,4.99
2022-11-19T14:14:50.969Z,5.33
2022-11-19T14:19:58.527Z,5.70
2022-11-19T14:25:07.064Z,5.13
2022-11-19T14:30:13.856Z,5.41
2022-11-19T14:35:20.154Z,7.59
2022-11-19T14:40:29.468Z,7.53
2022-11-19T14:45:36.778Z,4.96
2022-11-19T14:50:43.014Z,5.14
2022-11-19T14:55:53.973Z,4.89
2022-11-19T15:00:51.533Z,7.35
2022-11-19T15:05:58.014Z,5.03
2022-11-19T15:11:04.899Z,5.00
2022-11-19T15:16:12.013Z,5.16
2022-11-19T15:22:43.087Z,7.53
2022-11-19T15:26:21.874Z,6.18
2022-11-19T15:31:28.315Z,5.45
2022-11-19T15:36:35.107Z,10.22
2022-11-19T15:41:43.056Z,10.76
2022-11-19T15:46:57.255Z,9.08
2022-11-19T15:51:56.726Z,5.89
2022-11-19T15:57:16.858Z,5.71
2022-11-19T16:02:08.015Z,5.21
2022-11-19T16:07:23.992Z,5.75
2022-11-19T16:12:20.515Z,5.30
2022-11-19T16:24:31.471Z,6.36
2022-11-19T16:29:22.958Z,7.55
2022-11-19T16:34:29.922Z,4.29
2022-11-19T16:39:35.272Z,4.62
2022-11-19T16:44:41.520Z,4.80
2022-11-19T16:49:47.882Z,4.93
2022-11-19T16:54:54.174Z,5.18
2022-11-19T17:00:00.497Z,4.90
2022-11-19T17:05:10.942Z,4.77
2022-11-19T17:10:08.396Z,4.71
2022-11-19T17:15:14.735Z,5.05
2022-11-19T17:20:22.438Z,5.21
2022-11-19T17:25:30.958Z,4.95
2022-11-19T17:30:37.237Z,4.89
2022-11-19T17:35:43.535Z,4.61
2022-11-19T17:40:49.901Z,5.20
2022-11-19T17:46:01.356Z,5.23
2022-11-19T17:50:57.706Z,5.25
2022-11-19T17:56:04.016Z,4.56
2022-11-19T18:01:10.365Z,7.47
2022-11-19T18:06:16.723Z,5.27
2022-11-19T18:11:23.155Z,4.98
2022-11-19T18:16:29.491Z,4.94
2022-11-19T18:21:35.828Z,5.13
2022-11-19T18:26:42.182Z,5.65
2022-11-19T18:31:48.635Z,5.54
2022-11-19T18:37:29.466Z,5.51
2022-11-19T18:42:10.385Z,6.41
2022-11-19T18:47:32.860Z,5.44
2022-11-19T18:52:13.626Z,6.73
2022-11-19T18:57:17.468Z,6.45
2022-11-19T19:04:05.182Z,6.07
2022-11-19T19:07:31.640Z,5.58
2022-11-19T19:12:27.077Z,6.33
2022-11-19T19:20:41.575Z,5.64
2022-11-19T19:22:52.354Z,5.73
2022-11-19T19:27:30.030Z,6.26
2022-11-19T19:32:47.979Z,5.89
2022-11-19T19:38:02.437Z,6.23
2022-11-19T19:44:23.812Z,6.93
2022-11-19T19:49:21.501Z,8.95
2022-11-19T19:54:26.899Z,8.77
2022-11-19T19:59:34.689Z,9.06
2022-11-19T20:04:41.125Z,6.04
2022-11-19T20:09:49.304Z,9.46
2022-11-19T20:14:57.872Z,5.94
2022-11-19T20:20:03.370Z,10.22
2022-11-19T20:25:09.870Z,6.70
2022-11-19T20:30:16.333Z,6.64
2022-11-19T20:35:22.602Z,10.08
2022-11-19T20:40:28.806Z,9.70
2022-11-19T20:45:35.042Z,9.88
2022-11-19T20:50:41.330Z,7.04
2022-11-19T20:56:04.170Z,6.54
2022-11-19T21:00:53.591Z,6.79
2022-11-19T21:06:00.055Z,10.12
2022-11-19T21:11:06.419Z,6.75
2022-11-19T21:16:12.766Z,6.56
2022-11-19T21:21:21.439Z,6.77
2022-11-19T21:26:27.799Z,7.18
2022-11-19T21:31:36.611Z,11.12
2022-11-19T21:36:39.942Z,7.22
2022-11-19T21:41:46.188Z,7.03
2022-11-19T21:46:55.795Z,6.63
2022-11-19T21:52:07.496Z,7.20
2022-11-19T21:57:11.748Z,7.76
2022-11-19T22:02:18.067Z,10.67
2022-11-19T22:07:24.386Z,7.48
2022-11-19T22:12:30.588Z,7.63
2022-11-19T22:17:36.959Z,11.51
2022-11-19T22:22:43.185Z,7.73
2022-11-19T22:27:49.586Z,11.49
2022-11-19T22:32:55.797Z,7.64
2022-11-19T22:38:02.128Z,7.24
2022-11-19T22:43:08.360Z,11.19
2022-11-19T22:48:14.623Z,7.27
2022-11-19T22:53:26.981Z,7.65
2022-11-19T22:58:22.248Z,11.11
2022-11-19T23:03:28.511Z,11.56
2022-11-19T23:15:02.359Z,10.66
2022-11-19T23:18:44.589Z,6.96
2022-11-19T23:23:51.787Z,7.26
2022-11-19T23:28:58.053Z,10.67
2022-11-19T23:34:04.389Z,7.17
2022-11-19T23:39:10.667Z,7.35
2022-11-19T23:44:16.995Z,7.16
2022-11-19T23:49:23.463Z,7.32
2022-11-19T23:54:29.566Z,10.92
2022-11-19T23:59:35.747Z,7.34
